Latest Weather Observations for Flinders Island Airport

IDT60801

Issued at 5:32 am EDT Monday 20 February 2017 (issued every 30 minutes, with the page automatically refreshed every 10 minutes)

About weather observations | Map of weather stations | Latest weather observations for TAS | Other Formats
Station Details ID: 099005 Name: FLINDERS ISLAND AIRPORT Lat: -40.09 Lon: 148.00 Height: 9.0 m
Data from the previous 72 hours. | See also: Recent months at Flinders Island Airport
Date/Time
EDT
Temp
°C
App
Temp
°C
Dew
Point
°C
Rel
Hum
%
Delta-T
°C
Wind Press
QNH
hPa
Press
MSL
hPa
Rain since
9am
mm
Dir  Spd
km/h
Gust
km/h
Spd
kts
Gust
kts
20/05:00am 10.5 8.7 9.4 93 0.6 NE 9 11 5 6 1004.7 1004.7 17.2
20/04:30am 10.5 8.3 9.4 93 0.5 ENE 11 11 6 6 1004.7 1004.7 16.8
20/04:23am 10.4 8.6 9.3 93 0.5 ENE 9 11 5 6 1004.8 1004.8 16.8
20/04:05am 10.5 9.1 9.4 93 0.5 NNE 7 9 4 5 1005.0 1005.0 16.4
20/04:00am 10.4 8.6 9.3 93 0.5 NNE 9 11 5 6 1005.0 1005.0 16.0
20/03:30am 10.1 7.8 9.0 93 0.5 ENE 11 13 6 7 1004.9 1004.9 16.0
20/03:00am 10.4 8.6 9.3 93 0.5 ENE 9 11 5 6 1004.9 1004.9 16.0
20/02:30am 10.5 9.1 9.4 93 0.5 ENE 7 9 4 5 1004.9 1004.9 16.0
20/02:00am 10.3 8.8 9.1 92 0.6 ENE 7 9 4 5 1005.1 1005.1 15.8
20/01:30am 10.4 8.2 9.2 92 0.6 ENE 11 11 6 6 1005.4 1005.4 15.0
20/01:00am 10.4 8.1 9.0 91 0.7 ENE 11 13 6 7 1005.6 1005.6 15.0
20/12:30am 10.2 8.2 8.6 90 0.8 ENE 9 13 5 7 1005.8 1005.8 14.8
20/12:00am 10.7 10.4 8.6 87 1.0 CALM 0 0 0 0 1006.0 1006.0 14.8
 
Date/Time
EDT
Temp
°C
App
Temp
°C
Dew
Point
°C
Rel
Hum
%
Delta-T
°C
Wind Press
QNH
hPa
Press
MSL
hPa
Rain since
9am
mm
Dir  Spd
km/h
Gust
km/h
Spd
kts
Gust
kts
19/11:30pm 10.6 8.1 8.4 86 1.1 ENE 11 13 6 7 1006.0 1006.0 14.8
19/11:00pm 11.5 9.2 8.9 84 1.3 NNE 11 15 6 8 1006.4 1006.4 14.8
19/10:30pm 10.8 8.3 8.4 85 1.2 NNE 11 13 6 7 1006.4 1006.4 14.8
19/10:00pm 10.6 7.6 7.8 83 1.4 NNE 13 13 7 7 1006.7 1006.7 14.8
19/09:30pm 11.3 8.4 8.0 80 1.6 N 13 17 7 9 1006.8 1006.8 14.8
19/09:00pm 12.2 8.3 8.5 78 1.8 NNW 19 28 10 15 1006.7 1006.7 14.8
19/08:30pm 12.7 9.7 7.6 71 2.5 N 13 17 7 9 1006.2 1006.2 14.8
19/08:00pm 13.0 9.7 6.4 64 3.2 N 13 17 7 9 1006.0 1006.0 14.8
19/07:30pm 13.3 10.9 7.1 66 3.0 NNW 9 13 5 7 1005.5 1005.5 14.8
19/07:00pm 13.8 10.1 8.0 68 2.9 N 17 26 9 14 1005.4 1005.4 14.8
19/06:30pm 13.9 7.6 8.9 72 2.5 NW 32 41 17 22 1005.7 1005.7 14.8
19/06:00pm 15.8 10.3 9.0 64 3.5 NW 28 39 15 21 1005.4 1005.4 14.8
19/05:30pm 15.2 11.4 9.8 70 2.8 NW 20 30 11 16 1005.3 1005.3 14.8
19/05:00pm 14.9 11.5 9.1 68 3.0 NNW 17 24 9 13 1005.2 1005.2 14.8
19/04:30pm 14.7 11.4 9.7 72 2.6 NNW 17 26 9 14 1005.2 1005.2 0.8
19/04:00pm 14.2 11.3 9.8 75 2.3 NNW 15 19 8 10 1005.3 1005.3 0.6
19/03:30pm 12.6 9.7 9.8 83 1.4 N 15 24 8 13 1005.6 1005.6 0.6
19/03:00pm 14.5 10.1 9.1 70 2.8 WNW 22 28 12 15 1005.4 1005.4 0.4
19/02:30pm 14.8 10.5 10.8 77 2.1 WNW 24 33 13 18 1005.6 1005.6 0.2
19/02:00pm 13.5 10.7 11.4 87 1.1 NNW 17 24 9 13 1005.5 1005.5 0.2
19/01:33pm 13.3 10.1 11.4 88 1.0 WNW 19 33 10 18 1005.5 1005.5 0.2
19/01:30pm 13.5 10.8 11.6 88 1.0 NW 17 24 9 13 1005.6 1005.6 0.2
19/01:20pm 13.0 10.8 10.7 86 1.2 NNW 13 20 7 11 1005.6 1005.6 0.2
19/01:00pm 14.1 10.9 11.1 82 1.6 NW 19 28 10 15 1005.7 1005.7 0.2
19/12:30pm 12.6 7.7 10.0 84 1.3 NW 26 35 14 19 1005.8 1005.8 0.2
19/12:17pm 12.5 6.4 10.4 87 1.1 NW 33 52 18 28 1005.9 1005.9 0.2
19/12:09pm 12.7 9.4 10.9 89 0.9 NW 19 52 10 28 1006.1 1006.1 0.2
19/12:05pm 13.5 12.4 12.1 91 0.8 NNW 9 15 5 8 1006.0 1006.0 0.2
19/12:00pm 13.0 12.2 11.6 91 0.7 N 7 11 4 6 1005.9 1005.9 0.2
19/11:46am 12.1 10.6 10.5 90 0.8 NW 9 13 5 7 1006.2 1006.2 0.2
19/11:43am 12.2 10.3 10.6 90 0.8 WNW 11 15 6 8 1006.2 1006.2 0.2
19/11:30am 11.8 8.2 9.9 88 1.0 NW 19 30 10 16 1006.3 1006.3 0.2
19/11:27am 11.7 7.5 9.8 88 1.0 NW 22 33 12 18 1006.4 1006.4 0.2
19/11:00am 12.4 8.6 9.8 84 1.3 W 20 28 11 15 1006.4 1006.4 0.2
19/10:46am 12.3 8.5 9.9 85 1.2 WSW 20 30 11 16 1006.6 1006.6 0.2
19/10:30am 13.3 10.8 11.0 86 1.2 N 15 28 8 15 1006.1 1006.1 0.0
19/10:00am 12.8 10.1 10.3 85 1.3 NNW 15 19 8 10 1006.3 1006.3 0.0
19/09:30am 12.7 9.4 10.8 88 1.0 NNW 19 32 10 17 1006.2 1006.2 0.0
19/09:00am 12.7 10.5 10.8 88 1.0 N 13 19 7 10 1006.2 1006.2 0.6
19/08:30am 12.0 8.8 10.1 88 1.0 N 17 24 9 13 1006.2 1006.2 0.6
19/08:00am 12.0 9.5 9.7 86 1.2 N 13 26 7 14 1006.2 1006.2 0.6
19/07:33am 11.1 8.0 9.0 87 1.0 N 15 19 8 10 1006.1 1006.1 0.4
19/07:30am 11.2 8.2 9.1 87 1.0 N 15 26 8 14 1006.1 1006.1 0.4
19/07:04am 12.1 8.4 10.0 87 1.1 NNW 20 30 11 16 1006.3 1006.3 0.0
19/07:00am 12.2 8.6 9.9 86 1.2 N 19 30 10 16 1006.2 1006.2 0.0
19/06:42am 11.8 8.5 9.5 86 1.2 NNW 17 26 9 14 1005.8 1005.8 0.0
19/06:30am 11.7 7.8 9.4 86 1.2 NNW 20 35 11 19 1005.8 1005.8 0.0
19/06:24am 12.1 8.9 9.8 86 1.2 N 17 35 9 19 1005.9 1005.9 0.0
19/06:00am 12.2 9.4 9.9 86 1.2 N 15 24 8 13 1005.7 1005.7 0.0
19/05:30am 12.1 9.2 9.8 86 1.2 N 15 19 8 10 1005.6 1005.6 0.0
19/05:00am 11.7 9.0 8.9 83 1.4 N 13 17 7 9 1005.8 1005.8 0.0
19/04:38am 11.5 7.5 8.2 80 1.6 NNW 19 28 10 15 1006.2 1006.2 0.0
19/04:30am 11.9 6.6 8.4 79 1.7 NW 26 41 14 22 1006.2 1006.2 0.0
19/04:22am 12.4 8.3 8.7 78 1.8 NW 20 44 11 24 1006.2 1006.2 0.0
19/04:20am 12.6 9.1 8.7 77 1.9 NNW 17 44 9 24 1006.4 1006.4 0.0
19/04:00am 12.8 9.8 7.9 72 2.4 NNW 13 19 7 10 1006.2 1006.2 0.0
19/03:30am 13.0 7.6 8.1 72 2.4 NW 26 35 14 19 1006.5 1006.5 0.0
19/03:23am 13.2 7.4 8.1 71 2.5 NW 28 43 15 23 1006.6 1006.6 0.0
19/03:00am 12.9 9.6 8.2 73 2.3 NNW 15 19 8 10 1006.8 1006.8 0.0
19/02:30am 12.2 9.7 8.1 76 2.0 N 11 13 6 7 1007.4 1007.4 0.0
19/02:00am 12.9 7.9 8.2 73 2.3 NW 24 43 13 23 1007.8 1007.8 0.0
19/01:30am 14.3 9.1 7.1 62 3.5 WNW 24 32 13 17 1007.8 1007.8 0.0
19/01:00am 14.2 8.5 6.6 60 3.7 WNW 26 32 14 17 1008.0 1008.0 0.0
19/12:30am 14.2 9.7 6.8 61 3.6 WNW 20 28 11 15 1008.1 1008.1 0.0
19/12:00am 13.9 9.6 7.2 64 3.3 WNW 19 28 10 15 1008.2 1008.2 0.0
 
Date/Time
EDT
Temp
°C
App
Temp
°C
Dew
Point
°C
Rel
Hum
%
Delta-T
°C
Wind Press
QNH
hPa
Press
MSL
hPa
Rain since
9am
mm
Dir  Spd
km/h
Gust
km/h
Spd
kts
Gust
kts
18/11:30pm 14.3 8.5 7.8 65 3.2 W 28 37 15 20 1008.4 1008.4 0.0
18/11:00pm 14.3 7.9 6.9 61 3.6 WNW 30 37 16 20 1008.8 1008.8 0.0
18/10:30pm 14.3 8.4 7.6 64 3.3 WNW 28 37 15 20 1008.9 1008.9 0.0
18/10:00pm 13.9 8.1 7.9 67 3.0 WNW 28 35 15 19 1009.0 1009.0 0.0
18/09:30pm 14.9 8.4 6.7 58 4.0 W 30 39 16 21 1009.0 1009.0 0.0
18/09:00pm 15.0 8.9 6.6 57 4.1 W 28 41 15 22 1008.9 1008.9 0.0
18/08:30pm 15.1 9.1 6.9 58 4.0 WNW 28 35 15 19 1008.6 1008.6 0.0
18/08:00pm 15.3 8.8 6.6 56 4.2 W 30 37 16 20 1008.5 1008.5 0.0
18/07:30pm 15.7 9.2 6.7 55 4.4 W 30 37 16 20 1008.3 1008.3 0.0
18/07:00pm 16.2 9.0 6.1 51 4.9 W 33 39 18 21 1008.1 1008.1 0.0
18/06:30pm 16.7 9.9 7.1 53 4.8 W 32 39 17 21 1007.8 1007.8 0.0
18/06:00pm 16.9 9.9 7.0 52 4.9 W 33 39 18 21 1007.8 1007.8 0.0
18/05:30pm 16.4 9.3 6.2 51 5.0 W 33 39 18 21 1008.1 1008.1 0.0
18/05:00pm 16.5 9.8 7.2 54 4.6 W 32 41 17 22 1008.0 1008.0 0.0
18/04:30pm 17.0 10.0 6.8 51 5.0 W 33 43 18 23 1007.9 1007.9 0.0
18/04:00pm 17.6 10.8 6.8 49 5.4 W 32 37 17 20 1008.0 1008.0 0.0
18/03:30pm 18.3 12.3 8.8 54 4.9 W 30 35 16 19 1008.2 1008.2 0.0
18/03:00pm 17.9 11.7 7.9 52 5.1 W 30 35 16 19 1008.2 1008.2 0.0
18/02:30pm 17.0 12.0 7.9 55 4.6 WSW 24 30 13 16 1008.3 1008.3 0.0
18/02:00pm 16.9 12.5 7.5 54 4.7 WSW 20 26 11 14 1008.2 1008.2 0.0
18/01:30pm 17.1 12.8 7.2 52 4.9 WSW 19 26 10 14 1008.3 1008.3 0.0
18/01:00pm 17.2 12.8 7.3 52 5.0 WSW 20 28 11 15 1008.6 1008.6 0.0
18/12:30pm 17.5 13.3 8.4 55 4.7 SW 20 26 11 14 1008.5 1008.5 0.0
18/12:00pm 16.7 11.5 7.4 54 4.7 WSW 24 32 13 17 1008.8 1008.8 0.0
18/11:30am 16.6 11.9 7.8 56 4.4 WSW 22 28 12 15 1008.7 1008.7 0.0
18/11:00am 16.7 11.6 7.6 55 4.6 WSW 24 30 13 16 1008.6 1008.6 0.0
18/10:30am 17.1 12.3 8.8 58 4.3 WSW 24 30 13 16 1008.4 1008.4 0.0
18/10:00am 16.4 11.4 8.1 58 4.2 WSW 24 30 13 16 1008.4 1008.4 0.0
18/09:30am 16.1 10.9 7.3 56 4.4 W 24 30 13 16 1008.5 1008.5 0.0
18/09:00am 16.0 10.4 7.2 56 4.4 W 26 32 14 17 1008.4 1008.4 0.0
18/08:30am 15.7 10.9 7.5 58 4.1 WSW 22 30 12 16 1008.1 1008.1 0.0
18/08:00am 15.3 9.9 7.8 61 3.8 WSW 26 33 14 18 1008.1 1008.1 0.0
18/07:30am 15.3 10.9 8.8 65 3.3 SW 22 30 12 16 1007.9 1007.9 0.0
18/07:00am 15.2 10.4 8.9 66 3.2 WSW 24 32 13 17 1007.4 1007.4 0.0
18/06:30am 15.2 9.5 8.4 64 3.4 WSW 28 33 15 18 1007.0 1007.0 0.0
18/06:00am 15.0 9.1 9.1 68 3.0 WSW 30 35 16 19 1006.8 1006.8 0.0
18/05:30am 15.3 8.7 7.8 61 3.7 W 32 39 17 21 1006.6 1006.6 0.0
18/05:00am 15.5 8.8 8.0 61 3.8 W 33 41 18 22 1006.5 1006.5 0.0
18/04:30am 15.8 8.8 8.3 61 3.8 W 35 41 19 22 1006.6 1006.6 0.0
18/04:00am 16.0 9.1 9.0 63 3.6 W 35 43 19 23 1006.4 1006.4 0.0
18/03:30am 15.9 9.5 8.6 62 3.7 W 32 39 17 21 1006.7 1006.7 0.0
18/03:00am 16.0 11.0 11.0 72 2.7 W 28 33 15 18 1006.8 1006.8 0.0
18/02:30am 16.1 12.2 10.8 71 2.8 W 22 30 12 16 1006.9 1006.9 0.0
18/02:00am 16.2 12.3 10.7 70 2.9 W 22 32 12 17 1007.3 1007.3 0.0
18/01:30am 16.4 12.6 11.3 72 2.7 W 22 28 12 15 1007.4 1007.4 0.0
18/01:00am 16.4 12.0 11.6 73 2.6 W 26 30 14 16 1007.4 1007.4 0.0
18/12:30am 16.3 11.5 11.7 74 2.5 W 28 32 15 17 1007.5 1007.5 0.0
18/12:00am 16.3 12.3 11.9 75 2.4 W 24 30 13 16 1007.6 1007.6 0.0
 
Date/Time
EDT
Temp
°C
App
Temp
°C
Dew
Point
°C
Rel
Hum
%
Delta-T
°C
Wind Press
QNH
hPa
Press
MSL
hPa
Rain since
9am
mm
Dir  Spd
km/h
Gust
km/h
Spd
kts
Gust
kts
17/11:30pm 16.3 12.7 11.7 74 2.5 W 22 30 12 16 1007.9 1007.9 0.0
17/11:00pm 16.1 11.3 11.7 75 2.4 W 28 33 15 18 1007.7 1007.7 0.0
17/10:30pm 16.2 10.8 10.9 71 2.8 W 30 35 16 19 1007.8 1007.8 0.0
17/10:00pm 16.3 10.2 11.7 74 2.5 W 35 41 19 22 1008.0 1008.0 0.0
17/09:30pm 16.3 10.6 13.0 81 1.8 W 35 43 19 23 1007.9 1007.9 0.0
17/09:00pm 17.2 11.7 12.5 74 2.6 W 33 41 18 22 1007.4 1007.4 0.0
17/08:30pm 17.5 12.0 12.4 72 2.8 WNW 33 43 18 23 1007.2 1007.2 0.0
17/08:00pm 17.8 11.5 12.3 70 3.1 WNW 37 48 20 26 1006.9 1006.9 0.0
17/07:30pm 18.2 12.6 12.0 67 3.4 WNW 33 44 18 24 1006.6 1006.6 0.0
17/07:00pm 18.5 12.4 11.8 65 3.7 WNW 35 46 19 25 1006.4 1006.4 0.0
17/06:30pm 19.0 13.0 12.0 64 3.9 WNW 35 44 19 24 1006.5 1006.5 0.0
17/06:00pm 19.5 13.7 11.5 60 4.4 WNW 33 41 18 22 1006.4 1006.4 0.0
17/05:30pm 19.4 13.3 11.7 61 4.2 WNW 35 43 19 23 1006.3 1006.3 0.0
17/05:00pm 19.5 14.0 11.8 61 4.3 WNW 32 39 17 21 1006.2 1006.2 0.0
17/04:30pm 19.7 14.3 12.2 62 4.2 WNW 32 37 17 20 1006.2 1006.2 0.0
17/04:00pm 19.4 13.6 11.4 60 4.4 NW 33 43 18 23 1006.4 1006.4 0.0
17/03:30pm 19.9 14.2 11.1 57 4.8 WNW 32 41 17 22 1006.5 1006.5 0.0
17/03:00pm 20.1 14.8 11.3 57 4.9 WNW 30 37 16 20 1006.9 1006.9 0.0
17/02:30pm 19.1 13.4 11.9 63 4.0 W 33 39 18 21 1007.1 1007.1 0.0
17/02:00pm 19.9 15.3 12.4 62 4.2 W 28 33 15 18 1007.1 1007.1 0.0
17/01:30pm 19.6 14.9 11.9 61 4.3 W 28 33 15 18 1007.3 1007.3 0.0
17/01:00pm 19.8 15.5 13.3 66 3.7 W 28 33 15 18 1007.5 1007.5 0.0
17/12:30pm 18.6 13.2 12.1 66 3.6 W 32 43 17 23 1007.6 1007.6 0.0
17/12:00pm 19.2 13.7 10.7 58 4.6 WNW 30 37 16 20 1007.6 1007.6 0.0
17/11:30am 19.6 14.6 10.9 57 4.7 WNW 28 35 15 19 1007.6 1007.6 0.0
17/11:00am 19.0 14.6 10.3 57 4.7 WNW 24 33 13 18 1007.7 1007.7 0.0
17/10:30am 18.5 14.8 10.3 59 4.4 WNW 20 30 11 16 1007.6 1007.6 0.0
17/10:00am 18.2 14.1 11.3 64 3.8 WNW 24 32 13 17 1007.7 1007.7 0.0
17/09:30am 17.8 14.4 11.1 65 3.6 WNW 20 28 11 15 1007.7 1007.7 0.0
17/09:00am 17.4 13.9 11.0 66 3.5 WNW 20 28 11 15 1007.9 1007.9 0.0
17/08:30am 17.1 13.3 11.2 68 3.2 WNW 22 30 12 16 1008.0 1008.0 0.0
17/08:00am 16.7 13.4 11.0 69 3.1 WNW 19 24 10 13 1007.8 1007.8 0.0
17/07:30am 16.6 13.7 10.9 69 3.1 WNW 17 22 9 12 1007.4 1007.4 0.0
17/07:00am 16.3 12.9 10.6 69 3.0 WNW 19 26 10 14 1007.3 1007.3 0.0
17/06:30am 16.1 12.7 10.6 70 2.9 WNW 19 26 10 14 1007.1 1007.1 0.0
17/06:00am 15.9 13.0 10.9 72 2.7 WNW 17 26 9 14 1007.0 1007.0 0.0

Other Formats:

Comma delimited format used in spreadsheet applications
http://www.bom.gov.au/fwo/IDT60801/IDT60801.94980.axf

JavaScript Object Notation format (JSON) in row-major order
http://www.bom.gov.au/fwo/IDT60801/IDT60801.94980.json